Groom Creek, Arizona
Current Conditions -  °F | °C
As of 1:53 AM on Thursday 27 Nov 2014 (Local Time) from KPRC Reporting Station
Clear Clear  
Wind Chill: 27°   Ceiling: Unl
Heat Index: 34°   Visibility: 10mi
Dew Point: 17°   Wind: 8mph
Humidity: 50%   Direction: 190°S
Pressure: 30.4"   Gusts: NA
Location:  34.5368°N, 112.512°W
Report Text: KPRC 270853Z AUTO 19007KT 10SM CLR 01/M08 A3040 RMK AO2 SLP255 T00111083 50001
Loading
Personal Weather Stations






























Interactive Weather Map New forecast layout! Learn more

10-Day Weather Forecast

Advertisements
Track Severe Weather on mobile